createdAt,value
2023-03-02T00:01:37.990Z,3.99
2023-03-02T00:04:45.987Z,3.73
2023-03-02T00:07:47.968Z,3.61
2023-03-02T00:10:50.011Z,3.70
2023-03-02T00:13:51.956Z,3.82
2023-03-02T00:16:53.978Z,3.62
2023-03-02T00:20:11.561Z,3.85
2023-03-02T00:23:13.940Z,3.82
2023-03-02T00:26:16.057Z,3.44
2023-03-02T00:29:18.287Z,3.79
2023-03-02T00:32:20.278Z,3.78
2023-03-02T00:35:22.331Z,3.80
2023-03-02T00:38:24.399Z,3.82
2023-03-02T00:41:26.747Z,3.52
2023-03-02T00:44:28.865Z,3.84
2023-03-02T00:47:35.415Z,3.90
2023-03-02T00:50:41.229Z,3.80
2023-03-02T00:53:43.226Z,3.76
2023-03-02T00:56:45.344Z,3.86
2023-03-02T00:59:47.471Z,3.88
2023-03-02T01:03:00.150Z,3.65
2023-03-02T01:06:02.990Z,3.78
2023-03-02T01:09:04.971Z,3.78
2023-03-02T01:12:10.508Z,3.82
2023-03-02T01:15:12.691Z,3.81
2023-03-02T01:18:14.910Z,3.45
2023-03-02T01:21:16.936Z,3.83
2023-03-02T01:24:18.937Z,3.79
2023-03-02T01:27:21.037Z,3.76
2023-03-02T01:30:23.120Z,3.76
2023-03-02T01:33:25.080Z,3.79
2023-03-02T01:36:27.103Z,3.53
2023-03-02T01:39:29.113Z,3.80
2023-03-02T01:42:37.574Z,3.77
2023-03-02T01:45:52.270Z,3.59
2023-03-02T01:49:14.833Z,3.64
2023-03-02T01:52:38.429Z,3.75
2023-03-02T01:55:44.565Z,3.70
2023-03-02T01:58:48.717Z,3.64
2023-03-02T02:01:55.107Z,3.63
2023-03-02T02:04:57.643Z,3.60
2023-03-02T02:07:59.712Z,3.24
2023-03-02T02:11:01.876Z,2.78
2023-03-02T02:14:04.238Z,3.63
2023-03-02T02:17:06.328Z,3.38
2023-03-02T02:20:24.264Z,3.62
2023-03-02T02:23:27.143Z,3.61
2023-03-02T02:26:37.238Z,3.49
2023-03-02T02:29:49.555Z,3.58
2023-03-02T02:32:54.022Z,3.57
2023-03-02T02:36:04.029Z,3.48
2023-03-02T02:39:10.602Z,3.50
2023-03-02T02:42:24.494Z,3.26
2023-03-02T02:45:27.653Z,3.52
2023-03-02T02:48:32.203Z,3.50
2023-03-02T02:51:35.659Z,3.45
2023-03-02T02:54:38.788Z,3.38
2023-03-02T02:57:41.741Z,3.27
2023-03-02T03:00:43.792Z,3.16
2023-03-02T03:03:51.278Z,2.99
2023-03-02T03:06:54.893Z,2.95
2023-03-02T03:10:35.213Z,2.81
2023-03-02T03:13:38.927Z,2.52
2023-03-02T03:16:44.522Z,2.39
2023-03-02T03:19:47.731Z,2.29
2023-03-02T03:22:53.577Z,2.13
2023-03-02T03:25:56.466Z,1.94
2023-03-02T03:28:59.036Z,1.37
2023-03-02T03:32:02.377Z,1.55
2023-03-02T03:35:08.807Z,1.40
2023-03-02T03:38:11.390Z,1.06
2023-03-02T03:41:13.484Z,1.08
2023-03-02T03:44:15.700Z,0.98
2023-03-02T03:47:19.328Z,0.69
2023-03-02T03:50:22.094Z,0.82
2023-03-02T03:53:24.122Z,0.79
2023-03-02T03:56:31.997Z,0.41
2023-03-02T03:59:34.297Z,0.64
2023-03-02T04:02:38.369Z,0.59
2023-03-02T04:05:41.229Z,0.56
2023-03-02T04:08:43.219Z,0.52
2023-03-02T04:11:47.305Z,0.46
2023-03-02T04:14:49.824Z,0.37
2023-03-02T04:17:52.792Z,0.30
2023-03-02T04:20:56.645Z,0.28
2023-03-02T04:23:58.645Z,0.25
2023-03-02T04:27:00.765Z,0.24
2023-03-02T04:30:04.114Z,0.19
2023-03-02T04:33:06.180Z,0.14
2023-03-02T04:36:09.696Z,-0.24
2023-03-02T04:39:15.037Z,0.07
2023-03-02T04:42:21.101Z,-0.33
2023-03-02T04:45:23.098Z,0.07
2023-03-02T04:48:25.856Z,-0.08
2023-03-02T04:51:33.786Z,0.05
2023-03-02T04:54:35.758Z,-0.02
2023-03-02T04:57:37.743Z,-0.08
2023-03-02T05:00:40.001Z,-0.12
2023-03-02T05:03:42.019Z,-0.17
2023-03-02T05:06:43.982Z,-0.16
2023-03-02T05:09:46.010Z,-0.52
2023-03-02T05:13:05.131Z,-0.58
2023-03-02T05:16:07.440Z,-0.33
2023-03-02T05:19:10.922Z,-0.38
2023-03-02T05:22:12.918Z,-0.38
2023-03-02T05:25:15.002Z,-0.41
2023-03-02T05:28:17.991Z,-0.46
2023-03-02T05:31:29.515Z,-0.50
2023-03-02T05:34:31.490Z,-0.52
2023-03-02T05:37:33.534Z,-0.88
2023-03-02T05:40:36.689Z,-0.90
2023-03-02T05:43:39.707Z,-0.53
2023-03-02T05:46:41.840Z,-0.57
2023-03-02T05:49:43.932Z,-0.55
2023-03-02T05:52:46.553Z,-0.53
2023-03-02T05:55:48.978Z,-0.48
2023-03-02T05:58:50.930Z,-0.49
2023-03-02T06:01:58.917Z,-0.46
2023-03-02T06:05:01.052Z,-0.40
2023-03-02T06:08:03.915Z,-0.36
2023-03-02T06:11:05.847Z,-0.35
2023-03-02T06:14:07.785Z,-0.36
2023-03-02T06:17:10.616Z,-0.35
2023-03-02T06:20:14.314Z,-0.29
2023-03-02T06:23:17.096Z,-0.24
2023-03-02T06:26:19.093Z,-0.23
2023-03-02T06:29:21.965Z,-0.39
2023-03-02T06:32:24.042Z,-0.10
2023-03-02T06:35:26.123Z,-0.05
2023-03-02T06:38:28.136Z,-0.03
2023-03-02T06:41:30.233Z,0.06
2023-03-02T06:44:32.471Z,-0.33
2023-03-02T06:47:34.900Z,0.24
2023-03-02T06:50:36.908Z,0.30
2023-03-02T06:53:38.944Z,0.34
2023-03-02T06:56:41.214Z,0.41
2023-03-02T06:59:43.226Z,0.45
2023-03-02T07:02:45.481Z,0.45
2023-03-02T07:05:49.238Z,0.55
2023-03-02T07:08:51.205Z,0.55
2023-03-02T07:11:53.119Z,0.65
2023-03-02T07:14:55.165Z,0.73
2023-03-02T07:17:57.187Z,0.47
2023-03-02T07:20:59.081Z,0.68
2023-03-02T07:24:01.069Z,0.98
2023-03-02T07:27:03.185Z,1.08
2023-03-02T07:30:06.194Z,1.17
2023-03-02T07:33:08.148Z,1.29
2023-03-02T07:36:10.313Z,1.43
2023-03-02T07:39:12.245Z,1.55
2023-03-02T07:42:14.210Z,1.66
2023-03-02T07:45:22.129Z,1.42
2023-03-02T07:48:24.115Z,1.90
2023-03-02T07:51:26.818Z,1.72
2023-03-02T07:54:30.580Z,2.00
2023-03-02T07:57:32.530Z,1.87
2023-03-02T08:00:36.887Z,2.38
2023-03-02T08:03:39.124Z,2.21
2023-03-02T08:06:42.530Z,2.31
2023-03-02T08:09:44.781Z,1.75
2023-03-02T08:12:46.728Z,2.96
2023-03-02T08:15:48.671Z,3.53
2023-03-02T08:18:50.844Z,4.51
2023-03-02T08:21:52.914Z,8.70
2023-03-02T08:24:54.857Z,12.70
2023-03-02T08:27:56.838Z,15.89
2023-03-02T08:31:00.351Z,18.14
2023-03-02T08:34:02.583Z,19.48
2023-03-02T08:37:04.688Z,20.10
2023-03-02T08:40:07.405Z,18.11
2023-03-02T08:43:09.393Z,15.86
2023-03-02T08:46:13.554Z,14.21
2023-03-02T08:49:16.758Z,14.13
2023-03-02T08:52:18.875Z,13.31
2023-03-02T08:55:21.016Z,12.50
2023-03-02T08:58:23.229Z,11.45
2023-03-02T09:01:32.229Z,10.70
2023-03-02T09:04:35.534Z,10.01
2023-03-02T09:07:37.484Z,9.77
2023-03-02T09:10:39.939Z,9.36
2023-03-02T09:13:42.227Z,9.24
2023-03-02T09:16:45.636Z,9.24
2023-03-02T09:19:47.693Z,9.08
2023-03-02T09:22:51.161Z,9.18
2023-03-02T09:25:54.025Z,9.24
2023-03-02T09:28:56.378Z,9.13
2023-03-02T09:31:58.571Z,9.30
2023-03-02T09:35:00.629Z,9.18
2023-03-02T09:38:02.691Z,9.20
2023-03-02T09:41:31.749Z,9.00
2023-03-02T09:44:50.309Z,8.90
2023-03-02T09:48:35.526Z,9.38
2023-03-02T09:51:55.563Z,9.18
2023-03-02T09:55:11.578Z,9.75
2023-03-02T09:58:19.140Z,9.97
2023-03-02T10:01:34.323Z,10.04
2023-03-02T10:04:58.343Z,10.35
2023-03-02T10:08:01.005Z,10.43
2023-03-02T10:11:26.991Z,10.51
2023-03-02T10:14:39.735Z,10.79
2023-03-02T10:18:01.053Z,11.01
2023-03-02T10:21:13.956Z,11.25
2023-03-02T10:24:34.449Z,11.63
2023-03-02T10:27:44.257Z,11.75
2023-03-02T10:30:51.931Z,11.73
2023-03-02T10:33:54.364Z,11.94
2023-03-02T10:36:56.392Z,12.24
2023-03-02T10:39:58.498Z,12.52
2023-03-02T10:43:01.194Z,12.69
2023-03-02T10:46:09.118Z,12.68
2023-03-02T10:49:31.504Z,12.57
2023-03-02T10:52:34.580Z,12.33
2023-03-02T10:55:45.872Z,12.68
2023-03-02T10:58:48.149Z,12.84
2023-03-02T11:02:02.772Z,12.83
2023-03-02T11:05:26.733Z,12.69
2023-03-02T11:08:29.253Z,12.49
2023-03-02T11:11:32.694Z,12.34
2023-03-02T11:14:35.065Z,12.59
2023-03-02T11:17:39.190Z,12.36
2023-03-02T11:20:47.783Z,12.30
2023-03-02T11:24:15.530Z,12.19
2023-03-02T11:27:26.814Z,12.15
2023-03-02T11:30:34.372Z,11.90
2023-03-02T11:34:11.679Z,11.80
2023-03-02T11:37:28.485Z,11.36
2023-03-02T11:40:43.079Z,11.49
2023-03-02T11:43:45.432Z,11.57
2023-03-02T11:46:51.541Z,11.38
2023-03-02T11:49:56.433Z,11.51
2023-03-02T11:53:01.782Z,11.09
2023-03-02T11:56:03.994Z,11.50
2023-03-02T11:59:19.831Z,11.62
2023-03-02T12:02:23.221Z,11.27
2023-03-02T12:05:28.545Z,11.41
2023-03-02T12:08:32.448Z,11.17
2023-03-02T12:11:39.676Z,11.55
2023-03-02T12:14:43.452Z,11.61
2023-03-02T12:17:45.513Z,11.75
2023-03-02T12:21:04.541Z,11.74
2023-03-02T12:24:20.661Z,11.73
2023-03-02T12:27:27.423Z,11.55
2023-03-02T12:30:30.683Z,11.60
2023-03-02T12:33:32.719Z,11.39
2023-03-02T12:36:43.442Z,11.47
2023-03-02T12:40:08.080Z,11.80
2023-03-02T12:43:22.016Z,11.89
2023-03-02T12:46:34.193Z,11.88
2023-03-02T12:49:49.801Z,11.72
2023-03-02T12:53:02.236Z,11.67
2023-03-02T12:56:04.478Z,11.67
2023-03-02T12:59:06.807Z,11.51
2023-03-02T13:02:11.549Z,11.62
2023-03-02T13:05:19.063Z,11.53
2023-03-02T13:08:25.491Z,11.30
2023-03-02T13:11:37.000Z,11.01
2023-03-02T13:14:42.679Z,11.07
2023-03-02T13:17:52.193Z,11.04
2023-03-02T13:20:54.587Z,11.02
2023-03-02T13:23:56.604Z,11.13
2023-03-02T13:27:07.702Z,11.15
2023-03-02T13:30:25.067Z,11.03
2023-03-02T13:33:29.285Z,11.31
2023-03-02T13:36:37.647Z,11.28
2023-03-02T13:39:39.684Z,11.09
2023-03-02T13:42:41.702Z,11.25
2023-03-02T13:45:55.761Z,11.01
2023-03-02T13:49:10.606Z,10.89
2023-03-02T13:52:45.321Z,11.00
2023-03-02T13:55:47.904Z,10.76
2023-03-02T13:58:49.902Z,11.01
2023-03-02T14:01:51.885Z,11.01
2023-03-02T14:04:54.912Z,10.74
2023-03-02T14:07:56.928Z,10.45
2023-03-02T14:11:01.267Z,10.49
2023-03-02T14:14:05.297Z,10.27
2023-03-02T14:17:14.990Z,10.33
2023-03-02T14:20:19.686Z,10.47
2023-03-02T14:23:21.769Z,10.29
2023-03-02T14:26:23.652Z,10.28
2023-03-02T14:29:34.854Z,10.06
2023-03-02T14:32:36.877Z,10.10
2023-03-02T14:35:38.815Z,9.82
2023-03-02T14:38:40.877Z,9.81
2023-03-02T14:41:52.965Z,9.87
2023-03-02T14:44:55.590Z,9.82
2023-03-02T14:47:57.584Z,9.80
2023-03-02T14:51:02.755Z,9.80
2023-03-02T14:54:08.836Z,9.73
2023-03-02T14:57:18.869Z,9.62
2023-03-02T15:00:21.477Z,9.53
2023-03-02T15:03:25.752Z,9.46
2023-03-02T15:06:30.527Z,9.35
2023-03-02T15:09:32.650Z,9.38
2023-03-02T15:12:34.639Z,9.05
2023-03-02T15:15:37.798Z,9.19
2023-03-02T15:18:40.337Z,9.10
2023-03-02T15:21:45.305Z,9.27
2023-03-02T15:28:02.402Z,9.20
2023-03-02T15:31:09.316Z,9.18
2023-03-02T15:34:11.949Z,9.14
2023-03-02T15:37:14.110Z,9.08
2023-03-02T15:40:16.285Z,8.98
2023-03-02T15:43:18.249Z,8.94
2023-03-02T15:46:24.174Z,8.87
2023-03-02T15:49:28.676Z,8.77
2023-03-02T15:52:30.665Z,8.57
2023-03-02T15:55:32.708Z,8.45
2023-03-02T15:58:35.997Z,8.25
2023-03-02T16:01:38.027Z,8.11
2023-03-02T16:04:40.105Z,7.99
2023-03-02T16:07:42.626Z,7.85
2023-03-02T16:10:44.777Z,7.59
2023-03-02T16:13:47.002Z,7.45
2023-03-02T16:16:49.381Z,7.30
2023-03-02T16:19:51.516Z,7.17
2023-03-02T16:22:53.585Z,7.01
2023-03-02T16:26:05.711Z,6.58
2023-03-02T16:29:10.488Z,6.61
2023-03-02T16:32:12.840Z,6.26
2023-03-02T16:35:15.012Z,6.24
2023-03-02T16:38:17.372Z,6.05
2023-03-02T16:41:22.282Z,5.82
2023-03-02T16:44:26.122Z,5.60
2023-03-02T16:47:28.225Z,5.45
2023-03-02T16:50:30.421Z,5.33
2023-03-02T16:53:32.928Z,5.19
2023-03-02T16:56:35.450Z,5.00
2023-03-02T16:59:38.096Z,4.78
2023-03-02T17:02:40.533Z,4.64
2023-03-02T17:05:44.005Z,4.47
2023-03-02T17:08:46.544Z,4.29
2023-03-02T17:11:48.651Z,4.15
2023-03-02T17:14:50.839Z,4.00
2023-03-02T17:17:54.257Z,3.87
2023-03-02T17:20:58.848Z,3.73
2023-03-02T17:24:00.977Z,3.48
2023-03-02T17:27:04.218Z,3.38
2023-03-02T17:30:09.088Z,3.47
2023-03-02T17:33:12.085Z,3.30
2023-03-02T17:36:15.673Z,3.23
2023-03-02T17:39:17.937Z,3.16
2023-03-02T17:42:21.519Z,3.11
2023-03-02T17:45:26.906Z,3.03
2023-03-02T17:48:29.339Z,2.82
2023-03-02T17:51:32.242Z,2.79
2023-03-02T17:54:35.174Z,2.69
2023-03-02T17:57:37.504Z,2.61
2023-03-02T18:00:41.412Z,2.28
2023-03-02T18:03:45.370Z,2.49
2023-03-02T18:06:47.987Z,2.38
2023-03-02T18:09:50.362Z,2.28
2023-03-02T18:12:54.738Z,2.27
2023-03-02T18:15:57.218Z,2.22
2023-03-02T18:18:59.669Z,2.19
2023-03-02T18:22:02.462Z,2.12
2023-03-02T18:25:07.123Z,2.04
2023-03-02T18:28:10.054Z,1.97
2023-03-02T18:31:16.227Z,1.91
2023-03-02T18:34:20.236Z,1.82
2023-03-02T18:37:23.092Z,1.75
2023-03-02T18:40:26.147Z,1.71
2023-03-02T18:43:30.612Z,1.65
2023-03-02T18:46:34.120Z,1.59
2023-03-02T18:49:38.911Z,1.54
2023-03-02T18:52:41.731Z,1.47
2023-03-02T18:55:44.412Z,1.43
2023-03-02T18:58:48.853Z,1.38
2023-03-02T19:01:53.118Z,1.35
2023-03-02T19:04:56.294Z,1.31
2023-03-02T19:07:59.316Z,1.34
2023-03-02T19:11:02.180Z,1.29
2023-03-02T19:14:05.167Z,1.30
2023-03-02T19:17:07.336Z,1.28
2023-03-02T19:20:16.556Z,1.27
2023-03-02T19:23:19.733Z,1.22
2023-03-02T19:26:22.915Z,0.91
2023-03-02T19:29:25.564Z,1.17
2023-03-02T19:32:31.101Z,1.14
2023-03-02T19:35:35.009Z,0.95
2023-03-02T19:38:43.272Z,1.07
2023-03-02T19:41:47.728Z,1.02
2023-03-02T19:44:50.789Z,1.02
2023-03-02T19:47:55.266Z,0.84
2023-03-02T19:51:00.307Z,0.97
2023-03-02T19:54:04.451Z,0.94
2023-03-02T19:57:10.414Z,0.90
2023-03-02T20:00:16.734Z,0.90
2023-03-02T20:03:19.963Z,0.85
2023-03-02T20:06:26.470Z,0.80
2023-03-02T20:09:30.762Z,0.73
2023-03-02T20:12:34.265Z,0.70
2023-03-02T20:15:40.496Z,0.69
2023-03-02T20:18:43.680Z,0.70
2023-03-02T20:21:46.735Z,0.69
2023-03-02T20:24:49.820Z,0.69
2023-03-02T20:27:53.710Z,0.65
2023-03-02T20:30:59.950Z,0.63
2023-03-02T20:34:06.694Z,0.62
2023-03-02T20:37:14.996Z,0.63
2023-03-02T20:40:18.698Z,0.62
2023-03-02T20:43:22.155Z,0.60
2023-03-02T20:46:33.048Z,0.56
2023-03-02T20:49:37.751Z,0.54
2023-03-02T20:52:41.444Z,0.52
2023-03-02T20:55:45.380Z,0.53
2023-03-02T20:58:49.438Z,0.52
2023-03-02T21:01:52.495Z,0.47
2023-03-02T21:04:55.073Z,0.46
2023-03-02T21:07:58.318Z,0.45
2023-03-02T21:11:01.600Z,0.44
2023-03-02T21:14:05.115Z,0.45
2023-03-02T21:17:09.022Z,0.43
2023-03-02T21:20:12.794Z,0.40
2023-03-02T21:23:16.498Z,0.43
2023-03-02T21:26:19.033Z,0.40
2023-03-02T21:29:23.771Z,0.31
2023-03-02T21:32:26.388Z,0.38
2023-03-02T21:35:28.887Z,0.36
2023-03-02T21:38:31.236Z,0.35
2023-03-02T21:41:36.053Z,0.35
2023-03-02T21:44:38.109Z,0.35
2023-03-02T21:47:43.939Z,0.37
2023-03-02T21:50:46.041Z,0.39
2023-03-02T21:53:48.142Z,0.43
2023-03-02T21:56:50.147Z,0.24
2023-03-02T21:59:54.828Z,0.45
2023-03-02T22:02:56.866Z,0.47
2023-03-02T22:05:58.871Z,0.50
2023-03-02T22:09:01.827Z,0.57
2023-03-02T22:12:12.036Z,0.62
2023-03-02T22:15:14.995Z,0.65
2023-03-02T22:18:22.568Z,0.70
2023-03-02T22:21:30.182Z,0.76
2023-03-02T22:24:33.847Z,0.79
2023-03-02T22:27:35.776Z,0.83
2023-03-02T22:30:37.760Z,0.85
2023-03-02T22:33:41.355Z,0.89
2023-03-02T22:36:43.418Z,0.04
2023-03-02T22:39:46.266Z,0.94
2023-03-02T22:42:48.236Z,0.97
2023-03-02T22:45:50.777Z,1.00
2023-03-02T22:48:53.696Z,1.07
2023-03-02T22:52:00.950Z,0.99
2023-03-02T22:55:42.608Z,1.14
2023-03-02T22:58:50.669Z,1.17
2023-03-02T23:01:57.914Z,1.18
2023-03-02T23:04:59.873Z,1.18
2023-03-02T23:08:26.300Z,1.15
2023-03-02T23:11:31.699Z,0.85
2023-03-02T23:14:42.679Z,1.11
2023-03-02T23:17:46.796Z,1.10
2023-03-02T23:20:49.580Z,1.10
2023-03-02T23:23:51.519Z,0.96
2023-03-02T23:26:53.593Z,1.11
2023-03-02T23:29:55.729Z,1.10
2023-03-02T23:32:57.778Z,1.11
2023-03-02T23:36:00.303Z,1.10
2023-03-02T23:39:02.258Z,1.10
2023-03-02T23:42:04.387Z,1.12
2023-03-02T23:45:06.998Z,1.13
2023-03-02T23:48:08.963Z,1.12
2023-03-02T23:51:11.150Z,0.97
2023-03-02T23:54:13.298Z,1.13
2023-03-02T23:57:15.409Z,1.15
